Bemidji, Minnesota
Current Conditions -  °F | °C
As of 7:33 PM on Monday 20 Oct 2014 (Local Time) from KBJI Reporting Station
Clear Clear  
Wind Chill: 38°   Ceiling: Unl
Heat Index: 41°   Visibility: 10mi
Dew Point: 37°   Wind: 5mph
Humidity: 86%   Direction: 60°ENE
Pressure: 30.07"   Gusts: NA
Location:  47.47°N, 94.88°W
Report Text: KBJI 210033Z AUTO 06004KT 10SM CLR 05/03 A3007 RMK AO2 T00480026
Loading
Personal Weather Stations






























Interactive Weather Map
Tropical Storm Tracking
New forecast layout! Learn more

10-Day Weather Forecast

Advertisements
Track Severe Weather on mobile